Decoded Metar for KASD (SLIDELL 22 in LA, USA) (IATA:ASD) | Meteo·Mobile Aviation Weather
aviador You're here:

KASD Decoded Metar

SLIDELL 22 in LA, USA
Report Time2019-04-23 15:53:00
UTC Time2019-04-23 16:25:22
Flight Rules vfr VFR
Wind150° at 05 kt
W.Decomp.*RWY 18: 4.2 kt HW 2.6 kt LCW
Visibility9999 m
Phenomena:N/A
Clouds:N/A
Expected CloudBase > 3,600 ft AGL from Temp-Dew spread
CeilingNone
Temp23°C (ISA +8)
Dew Point14°C (57% RH)
AAT22.5°C
QNH1021 hPa
Density Alt912 ft
Elevation30 ft
Report Wrong Elevation
Raw Report
KASD 231553Z AUTO 15005KT 10SM CLR 23/14 A3015 RMK AO2 SLP208
T02330139=

Extra information for KASD:More info

Metar Taf Metar & Taf Last 4 Metars F.Rules Stats Wind Profile Meteogram Temp Stats Airport Information Weather charts Add Link Nearby VenuesMetar ALERT Operation Metar Decoded Social comments

AIRNAV info for KASD